sensor_id;sensor_type;location;lat;lon;timestamp;pressure;altitude;pressure_sealevel;temperature;humidity
77869;BME280;67231;59.144;37.934;2023-02-28T00:01:14;99519.28;;;-5.48;74.71
77869;BME280;67231;59.144;37.934;2023-02-28T00:03:41;99527.88;;;-5.47;74.44
77869;BME280;67231;59.144;37.934;2023-02-28T00:06:08;99516.66;;;-5.46;74.61
77869;BME280;67231;59.144;37.934;2023-02-28T00:08:36;99503.66;;;-5.45;74.56
77869;BME280;67231;59.144;37.934;2023-02-28T00:11:03;99495.84;;;-5.43;74.73
77869;BME280;67231;59.144;37.934;2023-02-28T00:13:30;99483.75;;;-5.43;74.03
77869;BME280;67231;59.144;37.934;2023-02-28T00:16:01;99469.09;;;-5.42;74.19
77869;BME280;67231;59.144;37.934;2023-02-28T00:18:27;99447.47;;;-5.41;73.71
77869;BME280;67231;59.144;37.934;2023-02-28T00:20:53;99457.75;;;-5.40;74.03
77869;BME280;67231;59.144;37.934;2023-02-28T00:23:19;99440.44;;;-5.38;74.12
77869;BME280;67231;59.144;37.934;2023-02-28T00:25:46;99437.78;;;-5.36;74.53
77869;BME280;67231;59.144;37.934;2023-02-28T00:28:12;99439.34;;;-5.32;74.70
77869;BME280;67231;59.144;37.934;2023-02-28T00:30:38;99436.69;;;-5.31;74.34
77869;BME280;67231;59.144;37.934;2023-02-28T00:33:04;99422.94;;;-5.31;74.81
77869;BME280;67231;59.144;37.934;2023-02-28T00:35:30;99419.34;;;-5.28;74.37
77869;BME280;67231;59.144;37.934;2023-02-28T00:37:57;99422.88;;;-5.29;75.15
77869;BME280;67231;59.144;37.934;2023-02-28T00:40:23;99431.38;;;-5.27;75.27
77869;BME280;67231;59.144;37.934;2023-02-28T00:42:49;99409.88;;;-5.28;75.72
77869;BME280;67231;59.144;37.934;2023-02-28T00:45:15;99393.31;;;-5.24;75.90
77869;BME280;67231;59.144;37.934;2023-02-28T00:47:41;99401.06;;;-5.24;75.94
77869;BME280;67231;59.144;37.934;2023-02-28T00:50:08;99384.56;;;-5.21;76.49
77869;BME280;67231;59.144;37.934;2023-02-28T00:52:36;99383.66;;;-5.20;76.55
77869;BME280;67231;59.144;37.934;2023-02-28T00:55:02;99375.75;;;-5.17;76.70
77869;BME280;67231;59.144;37.934;2023-02-28T00:57:29;99359.28;;;-5.15;76.43
77869;BME280;67231;59.144;37.934;2023-02-28T00:59:55;99364.31;;;-5.12;76.48
77869;BME280;67231;59.144;37.934;2023-02-28T01:02:22;99361.53;;;-5.07;76.58
77869;BME280;67231;59.144;37.934;2023-02-28T01:04:49;99345.13;;;-5.07;76.71
77869;BME280;67231;59.144;37.934;2023-02-28T01:07:15;99346.91;;;-5.08;77.39
77869;BME280;67231;59.144;37.934;2023-02-28T01:09:41;99328.78;;;-5.08;76.84
77869;BME280;67231;59.144;37.934;2023-02-28T01:12:09;99360.66;;;-5.07;77.31
77869;BME280;67231;59.144;37.934;2023-02-28T01:14:35;99357.94;;;-5.04;77.65
77869;BME280;67231;59.144;37.934;2023-02-28T01:17:02;99351.03;;;-5.04;77.34
77869;BME280;67231;59.144;37.934;2023-02-28T01:19:28;99361.31;;;-5.02;77.16
77869;BME280;67231;59.144;37.934;2023-02-28T01:21:54;99362.06;;;-5.00;77.08
77869;BME280;67231;59.144;37.934;2023-02-28T01:24:20;99364.53;;;-4.97;77.50
77869;BME280;67231;59.144;37.934;2023-02-28T01:26:46;99388.44;;;-4.92;77.76
77869;BME280;67231;59.144;37.934;2023-02-28T01:29:12;99369.13;;;-4.85;77.69
77869;BME280;67231;59.144;37.934;2023-02-28T01:31:39;99370.81;;;-4.84;77.79
77869;BME280;67231;59.144;37.934;2023-02-28T01:34:07;99357.88;;;-4.84;77.38
77869;BME280;67231;59.144;37.934;2023-02-28T01:36:34;99361.22;;;-4.82;77.62
77869;BME280;67231;59.144;37.934;2023-02-28T01:39:00;99351.66;;;-4.80;77.40
77869;BME280;67231;59.144;37.934;2023-02-28T01:41:29;99348.06;;;-4.77;77.75
77869;BME280;67231;59.144;37.934;2023-02-28T01:46:22;99344.38;;;-4.71;77.48
77869;BME280;67231;59.144;37.934;2023-02-28T01:48:56;99339.19;;;-4.71;77.82
77869;BME280;67231;59.144;37.934;2023-02-28T01:51:31;99318.41;;;-4.70;77.50
77869;BME280;67231;59.144;37.934;2023-02-28T01:54:04;99326.09;;;-4.68;77.73
77869;BME280;67231;59.144;37.934;2023-02-28T01:56:34;99340.63;;;-4.66;77.82
77869;BME280;67231;59.144;37.934;2023-02-28T01:59:02;99330.91;;;-4.61;78.50
77869;BME280;67231;59.144;37.934;2023-02-28T02:01:30;99320.63;;;-4.62;78.13
77869;BME280;67231;59.144;37.934;2023-02-28T02:03:59;99302.34;;;-4.59;78.03
77869;BME280;67231;59.144;37.934;2023-02-28T02:06:47;99303.34;;;-4.62;78.19
77869;BME280;67231;59.144;37.934;2023-02-28T02:09:13;99281.81;;;-4.62;78.85
77869;BME280;67231;59.144;37.934;2023-02-28T02:11:44;99283.69;;;-4.66;79.34
77869;BME280;67231;59.144;37.934;2023-02-28T02:14:26;99268.22;;;-4.67;79.12
77869;BME280;67231;59.144;37.934;2023-02-28T02:17:35;99274.34;;;-4.68;79.43
77869;BME280;67231;59.144;37.934;2023-02-28T02:25:53;99239.75;;;-4.67;79.43
77869;BME280;67231;59.144;37.934;2023-02-28T02:28:41;99233.59;;;-4.65;79.35
77869;BME280;67231;59.144;37.934;2023-02-28T02:39:51;99207.19;;;-4.71;80.71
77869;BME280;67231;59.144;37.934;2023-02-28T02:43:29;99225.38;;;-4.73;80.97
77869;BME280;67231;59.144;37.934;2023-02-28T02:45:46;99222.78;;;-4.73;80.69
77869;BME280;67231;59.144;37.934;2023-02-28T02:48:17;99199.50;;;-4.73;80.99
77869;BME280;67231;59.144;37.934;2023-02-28T02:50:49;99208.09;;;-4.72;80.95
77869;BME280;67231;59.144;37.934;2023-02-28T02:53:19;99218.38;;;-4.71;81.49
77869;BME280;67231;59.144;37.934;2023-02-28T02:55:49;99234.59;;;-4.67;80.92
77869;BME280;67231;59.144;37.934;2023-02-28T02:58:27;99206.91;;;-4.65;81.22
77869;BME280;67231;59.144;37.934;2023-02-28T03:00:58;99196.38;;;-4.62;81.92
77869;BME280;67231;59.144;37.934;2023-02-28T03:03:27;99192.13;;;-4.63;81.35
77869;BME280;67231;59.144;37.934;2023-02-28T03:05:57;99163.66;;;-4.63;81.11
77869;BME280;67231;59.144;37.934;2023-02-28T03:08:24;99167.91;;;-4.62;82.08
77869;BME280;67231;59.144;37.934;2023-02-28T03:10:55;99142.78;;;-4.60;81.52
77869;BME280;67231;59.144;37.934;2023-02-28T03:16:10;99136.66;;;-4.59;82.08
77869;BME280;67231;59.144;37.934;2023-02-28T03:21:40;99136.44;;;-4.54;82.15
77869;BME280;67231;59.144;37.934;2023-02-28T03:26:57;99125.78;;;-4.48;82.15
77869;BME280;67231;59.144;37.934;2023-02-28T03:29:37;99135.97;;;-4.45;82.16
77869;BME280;67231;59.144;37.934;2023-02-28T03:35:05;99132.16;;;-4.38;82.03
77869;BME280;67231;59.144;37.934;2023-02-28T03:37:35;99126.91;;;-4.36;80.97
77869;BME280;67231;59.144;37.934;2023-02-28T03:40:06;99115.38;;;-4.31;81.60
77869;BME280;67231;59.144;37.934;2023-02-28T03:42:36;99086.81;;;-4.29;81.37
77869;BME280;67231;59.144;37.934;2023-02-28T03:45:16;99085.75;;;-4.25;80.71
77869;BME280;67231;59.144;37.934;2023-02-28T03:47:53;99108.78;;;-4.21;80.63
77869;BME280;67231;59.144;37.934;2023-02-28T03:54:04;99081.06;;;-4.18;81.07
77869;BME280;67231;59.144;37.934;2023-02-28T03:56:00;99055.84;;;-4.15;80.25
77869;BME280;67231;59.144;37.934;2023-02-28T03:58:39;99073.06;;;-4.14;80.52
77869;BME280;67231;59.144;37.934;2023-02-28T04:01:15;99067.72;;;-4.11;80.56
77869;BME280;67231;59.144;37.934;2023-02-28T04:03:44;99042.38;;;-4.06;80.17
77869;BME280;67231;59.144;37.934;2023-02-28T04:06:19;99051.63;;;-4.02;80.09
77869;BME280;67231;59.144;37.934;2023-02-28T04:08:46;99062.69;;;-3.98;79.79
77869;BME280;67231;59.144;37.934;2023-02-28T04:11:36;99048.56;;;-3.92;80.20
77869;BME280;67231;59.144;37.934;2023-02-28T04:14:04;99046.69;;;-3.90;79.62
77869;BME280;67231;59.144;37.934;2023-02-28T04:16:31;99048.38;;;-3.89;79.88
77869;BME280;67231;59.144;37.934;2023-02-28T04:18:58;99026.56;;;-3.85;79.89
77869;BME280;67231;59.144;37.934;2023-02-28T04:21:34;99022.31;;;-3.86;79.63
77869;BME280;67231;59.144;37.934;2023-02-28T04:24:00;99011.84;;;-3.85;79.93
77869;BME280;67231;59.144;37.934;2023-02-28T04:26:30;99017.03;;;-3.85;80.05
77869;BME280;67231;59.144;37.934;2023-02-28T04:28:57;99001.41;;;-3.83;79.83
77869;BME280;67231;59.144;37.934;2023-02-28T04:31:23;98999.63;;;-3.82;79.61
77869;BME280;67231;59.144;37.934;2023-02-28T04:33:49;98993.63;;;-3.83;79.75
77869;BME280;67231;59.144;37.934;2023-02-28T04:36:15;98974.56;;;-3.82;79.94
77869;BME280;67231;59.144;37.934;2023-02-28T04:38:44;98972.72;;;-3.80;79.65
77869;BME280;67231;59.144;37.934;2023-02-28T04:41:12;98969.19;;;-3.79;79.62
77869;BME280;67231;59.144;37.934;2023-02-28T04:43:38;98948.19;;;-3.74;80.15
77869;BME280;67231;59.144;37.934;2023-02-28T04:46:05;98952.47;;;-3.73;79.70
77869;BME280;67231;59.144;37.934;2023-02-28T04:48:33;98935.91;;;-3.71;79.70
77869;BME280;67231;59.144;37.934;2023-02-28T04:51:07;98930.72;;;-3.71;79.39
77869;BME280;67231;59.144;37.934;2023-02-28T04:53:34;98935.63;;;-3.66;79.75
77869;BME280;67231;59.144;37.934;2023-02-28T04:56:01;98935.34;;;-3.61;79.52
77869;BME280;67231;59.144;37.934;2023-02-28T04:58:27;98947.22;;;-3.57;79.14
77869;BME280;67231;59.144;37.934;2023-02-28T05:00:54;98943.72;;;-3.56;79.45
77869;BME280;67231;59.144;37.934;2023-02-28T05:03:26;98944.19;;;-3.50;79.44
77869;BME280;67231;59.144;37.934;2023-02-28T05:05:52;98943.94;;;-3.45;79.84
77869;BME280;67231;59.144;37.934;2023-02-28T05:08:19;98936.63;;;-3.38;79.80
77869;BME280;67231;59.144;37.934;2023-02-28T05:10:45;98950.97;;;-3.33;79.54
77869;BME280;67231;59.144;37.934;2023-02-28T05:13:14;98951.44;;;-3.26;79.42
77869;BME280;67231;59.144;37.934;2023-02-28T05:15:40;98956.34;;;-3.21;79.30
77869;BME280;67231;59.144;37.934;2023-02-28T05:18:08;98952.47;;;-3.14;79.39
77869;BME280;67231;59.144;37.934;2023-02-28T05:20:34;98958.69;;;-3.02;79.08
77869;BME280;67231;59.144;37.934;2023-02-28T05:23:01;98946.94;;;-2.94;79.27
77869;BME280;67231;59.144;37.934;2023-02-28T05:25:27;98944.69;;;-2.85;79.43
77869;BME280;67231;59.144;37.934;2023-02-28T05:27:53;98961.53;;;-2.78;79.13
77869;BME280;67231;59.144;37.934;2023-02-28T05:30:20;98939.56;;;-2.72;78.87
77869;BME280;67231;59.144;37.934;2023-02-28T05:32:50;98956.53;;;-2.67;78.98
77869;BME280;67231;59.144;37.934;2023-02-28T05:35:16;98936.28;;;-2.62;79.05
77869;BME280;67231;59.144;37.934;2023-02-28T05:37:42;98931.66;;;-2.57;78.68
77869;BME280;67231;59.144;37.934;2023-02-28T05:40:09;98933.97;;;-2.52;79.21
77869;BME280;67231;59.144;37.934;2023-02-28T05:42:38;98904.38;;;-2.49;78.94
77869;BME280;67231;59.144;37.934;2023-02-28T05:45:05;98912.69;;;-2.44;78.75
77869;BME280;67231;59.144;37.934;2023-02-28T05:47:32;98903.97;;;-2.43;79.01
77869;BME280;67231;59.144;37.934;2023-02-28T05:49:58;98905.38;;;-2.38;79.04
77869;BME280;67231;59.144;37.934;2023-02-28T05:52:25;98893.00;;;-2.34;79.22
77869;BME280;67231;59.144;37.934;2023-02-28T05:54:51;98895.41;;;-2.31;79.11
77869;BME280;67231;59.144;37.934;2023-02-28T05:57:18;98889.06;;;-2.27;79.24
77869;BME280;67231;59.144;37.934;2023-02-28T05:59:44;98889.84;;;-2.25;78.77
77869;BME280;67231;59.144;37.934;2023-02-28T06:02:15;98882.03;;;-2.25;79.12
77869;BME280;67231;59.144;37.934;2023-02-28T06:04:42;98886.28;;;-2.24;79.13
77869;BME280;67231;59.144;37.934;2023-02-28T06:07:09;98874.13;;;-2.23;79.19
77869;BME280;67231;59.144;37.934;2023-02-28T06:09:35;98871.41;;;-2.22;79.24
77869;BME280;67231;59.144;37.934;2023-02-28T06:12:04;98861.59;;;-2.16;79.07
77869;BME280;67231;59.144;37.934;2023-02-28T06:14:35;98864.38;;;-2.20;79.38
77869;BME280;67231;59.144;37.934;2023-02-28T06:17:03;98855.81;;;-2.22;79.32
77869;BME280;67231;59.144;37.934;2023-02-28T06:19:29;98857.09;;;-2.14;79.31
77869;BME280;67231;59.144;37.934;2023-02-28T06:21:56;98848.84;;;-1.94;78.70
77869;BME280;67231;59.144;37.934;2023-02-28T06:24:25;98832.75;;;-1.73;78.91
77869;BME280;67231;59.144;37.934;2023-02-28T06:26:53;98841.38;;;-1.60;77.97
77869;BME280;67231;59.144;37.934;2023-02-28T06:29:19;98833.34;;;-1.57;78.15
77869;BME280;67231;59.144;37.934;2023-02-28T06:31:46;98831.69;;;-1.58;78.36
77869;BME280;67231;59.144;37.934;2023-02-28T06:34:13;98847.38;;;-1.59;78.26
77869;BME280;67231;59.144;37.934;2023-02-28T06:36:40;98853.22;;;-1.56;78.20
77869;BME280;67231;59.144;37.934;2023-02-28T06:39:07;98833.03;;;-1.52;78.27
77869;BME280;67231;59.144;37.934;2023-02-28T06:41:34;98840.53;;;-1.48;78.27
77869;BME280;67231;59.144;37.934;2023-02-28T06:44:29;98854.66;;;-1.39;78.23
77869;BME280;67231;59.144;37.934;2023-02-28T06:47:02;98822.22;;;-1.33;78.06
77869;BME280;67231;59.144;37.934;2023-02-28T06:49:34;98855.28;;;-1.35;78.08
77869;BME280;67231;59.144;37.934;2023-02-28T06:52:01;98849.66;;;-1.29;78.21
77869;BME280;67231;59.144;37.934;2023-02-28T06:54:27;98861.13;;;-1.19;77.95
77869;BME280;67231;59.144;37.934;2023-02-28T06:56:53;98858.28;;;-1.16;78.00
77869;BME280;67231;59.144;37.934;2023-02-28T06:59:22;98863.94;;;-1.22;78.22
77869;BME280;67231;59.144;37.934;2023-02-28T07:01:48;98855.16;;;-1.21;78.45
77869;BME280;67231;59.144;37.934;2023-02-28T07:04:14;98852.25;;;-1.29;78.82
77869;BME280;67231;59.144;37.934;2023-02-28T07:06:41;98858.41;;;-1.30;79.15
77869;BME280;67231;59.144;37.934;2023-02-28T07:09:07;98849.44;;;-1.26;79.43
77869;BME280;67231;59.144;37.934;2023-02-28T07:11:33;98841.13;;;-1.18;79.06
77869;BME280;67231;59.144;37.934;2023-02-28T07:14:00;98838.38;;;-1.04;79.04
77869;BME280;67231;59.144;37.934;2023-02-28T07:16:27;98850.66;;;-0.93;79.26
77869;BME280;67231;59.144;37.934;2023-02-28T07:18:54;98853.22;;;-0.80;78.97
77869;BME280;67231;59.144;37.934;2023-02-28T07:21:21;98853.94;;;-0.78;78.66
77869;BME280;67231;59.144;37.934;2023-02-28T07:23:47;98856.22;;;-0.74;78.68
77869;BME280;67231;59.144;37.934;2023-02-28T07:26:16;98850.56;;;-0.67;78.73
77869;BME280;67231;59.144;37.934;2023-02-28T07:28:44;98857.09;;;-0.62;78.53
77869;BME280;67231;59.144;37.934;2023-02-28T07:31:11;98868.88;;;-0.56;78.80
77869;BME280;67231;59.144;37.934;2023-02-28T07:33:37;98869.38;;;-0.51;78.73
77869;BME280;67231;59.144;37.934;2023-02-28T07:36:07;98868.94;;;-0.45;79.17
77869;BME280;67231;59.144;37.934;2023-02-28T07:38:34;98872.53;;;-0.34;78.78
77869;BME280;67231;59.144;37.934;2023-02-28T07:41:01;98867.84;;;-0.18;78.36
77869;BME280;67231;59.144;37.934;2023-02-28T07:43:31;98870.72;;;-0.10;78.44
77869;BME280;67231;59.144;37.934;2023-02-28T07:46:05;98866.50;;;0.01;78.12
77869;BME280;67231;59.144;37.934;2023-02-28T07:48:32;98874.38;;;0.12;77.90
77869;BME280;67231;59.144;37.934;2023-02-28T07:50:59;98879.13;;;0.18;77.60
77869;BME280;67231;59.144;37.934;2023-02-28T07:53:26;98879.63;;;0.34;77.68
77869;BME280;67231;59.144;37.934;2023-02-28T07:56:00;98887.84;;;0.52;77.43
77869;BME280;67231;59.144;37.934;2023-02-28T07:58:27;98874.69;;;0.54;77.16
77869;BME280;67231;59.144;37.934;2023-02-28T08:00:54;98883.00;;;0.70;76.53
77869;BME280;67231;59.144;37.934;2023-02-28T08:03:21;98869.72;;;0.73;75.89
77869;BME280;67231;59.144;37.934;2023-02-28T08:05:48;98875.66;;;0.64;76.02
77869;BME280;67231;59.144;37.934;2023-02-28T08:08:15;98895.81;;;0.62;76.17
77869;BME280;67231;59.144;37.934;2023-02-28T08:10:43;98898.66;;;0.59;76.13
77869;BME280;67231;59.144;37.934;2023-02-28T08:13:09;98892.13;;;0.53;76.51
77869;BME280;67231;59.144;37.934;2023-02-28T08:15:36;98901.38;;;0.58;75.84
77869;BME280;67231;59.144;37.934;2023-02-28T08:18:02;98901.38;;;0.80;75.49
77869;BME280;67231;59.144;37.934;2023-02-28T08:20:28;98893.72;;;1.01;75.05
77869;BME280;67231;59.144;37.934;2023-02-28T08:22:54;98901.44;;;1.03;74.71
77869;BME280;67231;59.144;37.934;2023-02-28T08:25:21;98904.84;;;1.03;74.94
77869;BME280;67231;59.144;37.934;2023-02-28T08:27:47;98901.31;;;1.04;74.45
77869;BME280;67231;59.144;37.934;2023-02-28T08:30:14;98902.94;;;1.05;73.58
77869;BME280;67231;59.144;37.934;2023-02-28T08:32:40;98892.72;;;1.14;73.18
77869;BME280;67231;59.144;37.934;2023-02-28T08:35:07;98900.06;;;1.31;73.12
77869;BME280;67231;59.144;37.934;2023-02-28T08:37:35;98913.56;;;1.59;71.93
77869;BME280;67231;59.144;37.934;2023-02-28T08:40:01;98904.47;;;1.86;70.96
77869;BME280;67231;59.144;37.934;2023-02-28T08:42:29;98907.72;;;2.10;70.20
77869;BME280;67231;59.144;37.934;2023-02-28T08:44:56;98916.84;;;2.37;69.37
77869;BME280;67231;59.144;37.934;2023-02-28T08:47:22;98914.41;;;2.45;68.35
77869;BME280;67231;59.144;37.934;2023-02-28T08:49:48;98906.63;;;2.34;67.60
77869;BME280;67231;59.144;37.934;2023-02-28T08:52:14;98912.13;;;2.31;67.03
77869;BME280;67231;59.144;37.934;2023-02-28T08:54:40;98906.75;;;2.32;66.47
77869;BME280;67231;59.144;37.934;2023-02-28T08:57:07;98910.53;;;2.40;66.29
77869;BME280;67231;59.144;37.934;2023-02-28T08:59:33;98919.03;;;2.32;65.72
77869;BME280;67231;59.144;37.934;2023-02-28T09:01:59;98923.66;;;2.07;65.16
77869;BME280;67231;59.144;37.934;2023-02-28T09:04:25;98919.47;;;1.84;65.34
77869;BME280;67231;59.144;37.934;2023-02-28T09:06:51;98941.16;;;1.63;64.79
77869;BME280;67231;59.144;37.934;2023-02-28T17:54:30;99141.53;;;-3.70;56.77
77869;BME280;67231;59.144;37.934;2023-02-28T17:57:01;99139.66;;;-3.68;56.73
77869;BME280;67231;59.144;37.934;2023-02-28T17:59:32;99132.72;;;-3.68;56.73
77869;BME280;67231;59.144;37.934;2023-02-28T18:02:06;99125.81;;;-3.67;56.81
77869;BME280;67231;59.144;37.934;2023-02-28T18:04:35;99128.41;;;-3.67;57.30
77869;BME280;67231;59.144;37.934;2023-02-28T18:07:09;99131.91;;;-3.68;57.73
77869;BME280;67231;59.144;37.934;2023-02-28T18:09:43;99129.38;;;-3.70;57.23
77869;BME280;67231;59.144;37.934;2023-02-28T18:12:12;99131.31;;;-3.73;57.64
77869;BME280;67231;59.144;37.934;2023-02-28T18:14:42;99129.72;;;-3.76;57.58
77869;BME280;67231;59.144;37.934;2023-02-28T18:17:11;99136.91;;;-3.81;57.46
77869;BME280;67231;59.144;37.934;2023-02-28T18:19:41;99133.56;;;-3.83;57.31
77869;BME280;67231;59.144;37.934;2023-02-28T18:22:13;99136.25;;;-3.85;57.49
77869;BME280;67231;59.144;37.934;2023-02-28T18:24:41;99118.34;;;-3.89;57.62
77869;BME280;67231;59.144;37.934;2023-02-28T18:27:10;99115.03;;;-3.91;57.38
77869;BME280;67231;59.144;37.934;2023-02-28T18:29:38;99128.88;;;-3.92;57.17
77869;BME280;67231;59.144;37.934;2023-02-28T18:32:10;99115.09;;;-3.93;57.22
77869;BME280;67231;59.144;37.934;2023-02-28T18:34:38;99115.25;;;-3.96;57.57
77869;BME280;67231;59.144;37.934;2023-02-28T18:37:05;99112.91;;;-4.00;57.40
77869;BME280;67231;59.144;37.934;2023-02-28T18:39:32;99117.50;;;-4.06;57.33
77869;BME280;67231;59.144;37.934;2023-02-28T18:41:58;99121.91;;;-4.08;57.50
77869;BME280;67231;59.144;37.934;2023-02-28T18:44:24;99118.66;;;-4.11;57.72
77869;BME280;67231;59.144;37.934;2023-02-28T18:46:51;99110.16;;;-4.13;57.90
77869;BME280;67231;59.144;37.934;2023-02-28T18:49:18;99115.50;;;-4.16;57.99
77869;BME280;67231;59.144;37.934;2023-02-28T18:51:44;99109.63;;;-4.20;57.68
77869;BME280;67231;59.144;37.934;2023-02-28T18:54:12;99111.56;;;-4.24;57.75
77869;BME280;67231;59.144;37.934;2023-02-28T18:56:39;99109.97;;;-4.26;57.94
77869;BME280;67231;59.144;37.934;2023-02-28T18:59:05;99115.13;;;-4.26;57.77
77869;BME280;67231;59.144;37.934;2023-02-28T19:01:32;99110.94;;;-4.29;58.25
77869;BME280;67231;59.144;37.934;2023-02-28T19:04:00;99108.50;;;-4.32;57.67
77869;BME280;67231;59.144;37.934;2023-02-28T19:06:27;99110.34;;;-4.34;57.66
77869;BME280;67231;59.144;37.934;2023-02-28T19:08:55;99110.44;;;-4.35;57.93
77869;BME280;67231;59.144;37.934;2023-02-28T19:11:23;99109.53;;;-4.34;57.52
77869;BME280;67231;59.144;37.934;2023-02-28T19:13:50;99112.03;;;-4.33;57.62
77869;BME280;67231;59.144;37.934;2023-02-28T19:16:18;99108.59;;;-4.33;58.13
77869;BME280;67231;59.144;37.934;2023-02-28T19:18:45;99105.09;;;-4.32;58.00
77869;BME280;67231;59.144;37.934;2023-02-28T19:21:13;99105.09;;;-4.32;57.72
77869;BME280;67231;59.144;37.934;2023-02-28T19:23:40;99099.25;;;-4.36;57.65
77869;BME280;67231;59.144;37.934;2023-02-28T19:26:09;99103.59;;;-4.36;57.97
77869;BME280;67231;59.144;37.934;2023-02-28T19:28:36;99107.09;;;-4.37;58.59
77869;BME280;67231;59.144;37.934;2023-02-28T19:31:20;99102.91;;;-4.40;58.07
77869;BME280;67231;59.144;37.934;2023-02-28T19:33:47;99108.94;;;-4.40;58.06
77869;BME280;67231;59.144;37.934;2023-02-28T19:36:14;99105.56;;;-4.42;58.36
77869;BME280;67231;59.144;37.934;2023-02-28T19:38:41;99110.00;;;-4.44;58.07
77869;BME280;67231;59.144;37.934;2023-02-28T19:41:10;99099.72;;;-4.45;57.88
77869;BME280;67231;59.144;37.934;2023-02-28T19:43:37;99097.22;;;-4.47;58.79
77869;BME280;67231;59.144;37.934;2023-02-28T19:46:04;99099.06;;;-4.49;58.19
77869;BME280;67231;59.144;37.934;2023-02-28T19:48:32;99096.63;;;-4.52;58.38
77869;BME280;67231;59.144;37.934;2023-02-28T19:51:00;99107.06;;;-4.53;58.53
77869;BME280;67231;59.144;37.934;2023-02-28T19:53:29;99107.06;;;-4.53;58.37
77869;BME280;67231;59.144;37.934;2023-02-28T19:55:56;99099.38;;;-4.55;58.49
77869;BME280;67231;59.144;37.934;2023-02-28T19:58:22;99088.34;;;-4.59;58.59
77869;BME280;67231;59.144;37.934;2023-02-28T20:00:48;99097.09;;;-4.61;58.65
77869;BME280;67231;59.144;37.934;2023-02-28T20:03:15;99094.66;;;-4.64;58.33
77869;BME280;67231;59.144;37.934;2023-02-28T20:05:44;99090.44;;;-4.65;58.60
77869;BME280;67231;59.144;37.934;2023-02-28T20:08:11;99081.97;;;-4.69;58.70
77869;BME280;67231;59.144;37.934;2023-02-28T20:10:38;99090.72;;;-4.71;59.12
77869;BME280;67231;59.144;37.934;2023-02-28T20:13:04;99091.63;;;-4.72;58.90
77869;BME280;67231;59.144;37.934;2023-02-28T20:15:31;99079.78;;;-4.77;58.94
77869;BME280;67231;59.144;37.934;2023-02-28T20:17:57;99092.97;;;-4.81;59.25
77869;BME280;67231;59.144;37.934;2023-02-28T20:20:25;99097.50;;;-4.86;59.26
77869;BME280;67231;59.144;37.934;2023-02-28T20:22:52;99074.56;;;-4.92;59.38
77869;BME280;67231;59.144;37.934;2023-02-28T20:25:18;99081.69;;;-4.98;59.38
77869;BME280;67231;59.144;37.934;2023-02-28T20:27:45;99075.16;;;-5.05;59.77
77869;BME280;67231;59.144;37.934;2023-02-28T20:30:12;99085.00;;;-5.12;59.72
77869;BME280;67231;59.144;37.934;2023-02-28T20:32:38;99076.69;;;-5.18;60.01
77869;BME280;67231;59.144;37.934;2023-02-28T20:35:05;99076.16;;;-5.25;59.72
77869;BME280;67231;59.144;37.934;2023-02-28T20:37:33;99067.78;;;-5.30;60.08
77869;BME280;67231;59.144;37.934;2023-02-28T20:39:59;99079.28;;;-5.36;59.79
77869;BME280;67231;59.144;37.934;2023-02-28T20:42:26;99079.34;;;-5.37;60.20
77869;BME280;67231;59.144;37.934;2023-02-28T20:44:52;99078.56;;;-5.39;59.81
77869;BME280;67231;59.144;37.934;2023-02-28T20:47:18;99085.56;;;-5.41;60.07
77869;BME280;67231;59.144;37.934;2023-02-28T20:49:45;99081.47;;;-5.45;60.27
77869;BME280;67231;59.144;37.934;2023-02-28T20:52:11;99087.84;;;-5.53;60.28
77869;BME280;67231;59.144;37.934;2023-02-28T20:54:37;99088.06;;;-5.57;60.26
77869;BME280;67231;59.144;37.934;2023-02-28T20:57:04;99091.66;;;-5.60;60.03
77869;BME280;67231;59.144;37.934;2023-02-28T20:59:30;99093.50;;;-5.63;60.14
77869;BME280;67231;59.144;37.934;2023-02-28T21:01:56;99096.16;;;-5.65;60.70
77869;BME280;67231;59.144;37.934;2023-02-28T21:04:23;99091.09;;;-5.67;60.85
77869;BME280;67231;59.144;37.934;2023-02-28T21:06:49;99089.50;;;-5.69;60.42
77869;BME280;67231;59.144;37.934;2023-02-28T21:09:18;99091.94;;;-5.66;61.06
77869;BME280;67231;59.144;37.934;2023-02-28T21:11:44;99085.84;;;-5.65;61.19
77869;BME280;67231;59.144;37.934;2023-02-28T21:14:15;99089.28;;;-5.64;61.78
77869;BME280;67231;59.144;37.934;2023-02-28T21:16:42;99086.00;;;-5.68;62.00
77869;BME280;67231;59.144;37.934;2023-02-28T21:19:10;99086.16;;;-5.71;62.31
77869;BME280;67231;59.144;37.934;2023-02-28T21:21:39;99087.13;;;-5.74;62.06
77869;BME280;67231;59.144;37.934;2023-02-28T21:24:15;99091.47;;;-5.74;62.69
77869;BME280;67231;59.144;37.934;2023-02-28T21:26:42;99106.25;;;-5.78;62.69
77869;BME280;67231;59.144;37.934;2023-02-28T21:29:10;99102.06;;;-5.80;63.45
77869;BME280;67231;59.144;37.934;2023-02-28T21:31:37;99104.03;;;-5.86;63.10
77869;BME280;67231;59.144;37.934;2023-02-28T21:34:06;99105.97;;;-5.91;63.51
77869;BME280;67231;59.144;37.934;2023-02-28T21:36:38;99106.31;;;-5.97;63.65
77869;BME280;67231;59.144;37.934;2023-02-28T21:39:08;99104.97;;;-6.06;64.23
77869;BME280;67231;59.144;37.934;2023-02-28T21:41:35;99106.94;;;-6.11;64.07
77869;BME280;67231;59.144;37.934;2023-02-28T21:44:03;99107.28;;;-6.18;64.34
77869;BME280;67231;59.144;37.934;2023-02-28T21:46:29;99106.66;;;-6.24;64.43
77869;BME280;67231;59.144;37.934;2023-02-28T21:48:56;99101.69;;;-6.28;64.29
77869;BME280;67231;59.144;37.934;2023-02-28T21:51:26;99108.63;;;-6.29;64.91
77869;BME280;67231;59.144;37.934;2023-02-28T21:53:53;99101.97;;;-6.34;64.95
77869;BME280;67231;59.144;37.934;2023-02-28T21:56:22;99106.44;;;-6.38;64.67
77869;BME280;67231;59.144;37.934;2023-02-28T21:58:50;99109.28;;;-6.44;64.91
77869;BME280;67231;59.144;37.934;2023-02-28T22:01:18;99108.53;;;-6.46;64.86
77869;BME280;67231;59.144;37.934;2023-02-28T22:03:46;99112.13;;;-6.50;65.03
77869;BME280;67231;59.144;37.934;2023-02-28T22:06:20;99113.00;;;-6.50;65.43
77869;BME280;67231;59.144;37.934;2023-02-28T22:08:51;99113.81;;;-6.49;65.23
77869;BME280;67231;59.144;37.934;2023-02-28T22:11:19;99106.84;;;-6.47;65.14
77869;BME280;67231;59.144;37.934;2023-02-28T22:13:46;99113.41;;;-6.40;64.91